EWG543 EDDH-EDDM
Flight info
| Callsign | EWG543 |
|---|---|
| Flight time | 0h 56m |
| Altitude | 35000 |
| Route | AMLUH2G/33 AMLUH M852 DENIX DCT ZUCKA DCT SODRO/N0439F310 T703 LULAR/N0427F300 T105 LANDU LANDU2B |
| Aircraft | A20N/M-SDE2E3FGHIRWXY/LB1 |
Departure
| Time | 2026-05-07 18:57 |
|---|---|
| Airport | Hamburg Helmut Schmidt Airport (EDDH) |
Arrival
| Time | 2026-05-07 19:53 |
|---|---|
| Airport | Munich Airport (EDDM) |
| Time | Latitude | Longitude | Altitude | Speed | Heading |
|---|---|---|---|---|---|
| 2026-05-07 18:29 | 53.63208 | 10.00360 | 49 ft | 0 kts | 86° |
| 2026-05-07 18:48 | 53.63208 | 10.00354 | 49 ft | 2 kts | 87° |
| 2026-05-07 18:48 | 53.63207 | 10.00326 | 49 ft | 2 kts | 88° |
| 2026-05-07 18:48 | 53.63207 | 10.00298 | 49 ft | 2 kts | 89° |
| 2026-05-07 18:48 | 53.63207 | 10.00271 | 49 ft | 2 kts | 91° |
| 2026-05-07 18:49 | 53.63207 | 10.00243 | 49 ft | 2 kts | 94° |
| 2026-05-07 18:49 | 53.63209 | 10.00216 | 49 ft | 2 kts | 101° |
| 2026-05-07 18:49 | 53.63214 | 10.00190 | 45 ft | 2 kts | 127° |
| 2026-05-07 18:49 | 53.63225 | 10.00178 | 48 ft | 1 kts | 173° |
| 2026-05-07 18:50 | 53.63226 | 10.00178 | 48 ft | 0 kts | 175° |
| 2026-05-07 18:50 | 53.63225 | 10.00178 | 48 ft | 0 kts | 175° |
| 2026-05-07 18:50 | 53.63222 | 10.00178 | 47 ft | 1 kts | 175° |
| 2026-05-07 18:50 | 53.63213 | 10.00180 | 46 ft | 5 kts | 175° |
| 2026-05-07 18:51 | 53.63147 | 10.00188 | 48 ft | 12 kts | 176° |
| 2026-05-07 18:51 | 53.63064 | 10.00180 | 46 ft | 11 kts | 197° |
| 2026-05-07 18:51 | 53.63009 | 10.00116 | 48 ft | 9 kts | 215° |
| 2026-05-07 18:51 | 53.62989 | 10.00096 | 48 ft | 0 kts | 211° |
| 2026-05-07 18:52 | 53.62983 | 10.00090 | 48 ft | 4 kts | 211° |
| 2026-05-07 18:52 | 53.62974 | 10.00081 | 47 ft | 0 kts | 211° |
| 2026-05-07 18:52 | 53.62968 | 10.00075 | 48 ft | 0 kts | 211° |
| 2026-05-07 18:52 | 53.62938 | 10.00036 | 49 ft | 11 kts | 228° |
| 2026-05-07 18:53 | 53.62897 | 9.99912 | 49 ft | 0 kts | 243° |
| 2026-05-07 18:53 | 53.62893 | 9.99901 | 49 ft | 5 kts | 243° |
| 2026-05-07 18:54 | 53.62865 | 9.99789 | 47 ft | 15 kts | 259° |
| 2026-05-07 18:54 | 53.62915 | 9.99699 | 48 ft | 11 kts | 346° |
| 2026-05-07 18:54 | 53.62941 | 9.99681 | 50 ft | 0 kts | 333° |
| 2026-05-07 18:56 | 53.62961 | 9.99664 | 29 ft | 18 kts | 333° |
| 2026-05-07 18:56 | 53.63293 | 9.99378 | 50 ft | 87 kts | 333° |
| 2026-05-07 18:56 | 53.64027 | 9.98746 | 45 ft | 148 kts | 334° |
| 2026-05-07 18:56 | 53.64976 | 9.97932 | 480 ft | 155 kts | 335° |
| 2026-05-07 18:57 | 53.65949 | 9.97101 | 1056 ft | 159 kts | 338° |
| 2026-05-07 18:57 | 53.66974 | 9.96250 | 1633 ft | 176 kts | 338° |
| 2026-05-07 18:57 | 53.68165 | 9.95264 | 2024 ft | 202 kts | 336° |
| 2026-05-07 18:57 | 53.69510 | 9.94319 | 2598 ft | 216 kts | 352° |
| 2026-05-07 18:58 | 53.71022 | 9.94460 | 3421 ft | 219 kts | 18° |
| 2026-05-07 18:58 | 53.72425 | 9.95407 | 4362 ft | 216 kts | 38° |
| 2026-05-07 18:58 | 53.73280 | 9.97394 | 5286 ft | 211 kts | 71° |
| 2026-05-07 18:58 | 53.73735 | 9.99778 | 6122 ft | 216 kts | 75° |
| 2026-05-07 18:59 | 53.74045 | 10.02282 | 6939 ft | 221 kts | 85° |
| 2026-05-07 18:59 | 53.73816 | 10.04877 | 7612 ft | 234 kts | 110° |
| 2026-05-07 18:59 | 53.73068 | 10.07445 | 7999 ft | 258 kts | 118° |
| 2026-05-07 18:59 | 53.72132 | 10.10135 | 8645 ft | 272 kts | 120° |
| 2026-05-07 19:00 | 53.71159 | 10.12916 | 9496 ft | 278 kts | 119° |
| 2026-05-07 19:00 | 53.70067 | 10.15641 | 10354 ft | 285 kts | 130° |
| 2026-05-07 19:00 | 53.68519 | 10.17903 | 10775 ft | 307 kts | 148° |
| 2026-05-07 19:00 | 53.66547 | 10.19600 | 11133 ft | 330 kts | 157° |
| 2026-05-07 19:01 | 53.64335 | 10.20928 | 11724 ft | 343 kts | 163° |
| 2026-05-07 19:01 | 53.62015 | 10.22041 | 12539 ft | 350 kts | 165° |
| 2026-05-07 19:01 | 53.59636 | 10.23087 | 13398 ft | 355 kts | 166° |
| 2026-05-07 19:01 | 53.57229 | 10.24144 | 14243 ft | 360 kts | 166° |
| 2026-05-07 19:02 | 53.54794 | 10.25246 | 15015 ft | 365 kts | 165° |
| 2026-05-07 19:02 | 53.52337 | 10.26399 | 15783 ft | 369 kts | 165° |
| 2026-05-07 19:02 | 53.49853 | 10.27596 | 16562 ft | 373 kts | 164° |
| 2026-05-07 19:02 | 53.47341 | 10.28827 | 17328 ft | 377 kts | 164° |
| 2026-05-07 19:03 | 53.44808 | 10.30077 | 18073 ft | 382 kts | 164° |
| 2026-05-07 19:03 | 53.42280 | 10.31326 | 18737 ft | 386 kts | 164° |
| 2026-05-07 19:03 | 53.39683 | 10.32608 | 19365 ft | 390 kts | 164° |
| 2026-05-07 19:03 | 53.37067 | 10.33897 | 20003 ft | 394 kts | 165° |
| 2026-05-07 19:04 | 53.34423 | 10.35195 | 20636 ft | 398 kts | 165° |
| 2026-05-07 19:04 | 53.31756 | 10.36500 | 21267 ft | 401 kts | 165° |
| 2026-05-07 19:04 | 53.29063 | 10.37816 | 21896 ft | 405 kts | 165° |
| 2026-05-07 19:04 | 53.26347 | 10.39142 | 22507 ft | 408 kts | 165° |
| 2026-05-07 19:05 | 53.23602 | 10.40479 | 23104 ft | 412 kts | 165° |
| 2026-05-07 19:05 | 53.20840 | 10.41823 | 23676 ft | 415 kts | 165° |
| 2026-05-07 19:05 | 53.18051 | 10.43178 | 24144 ft | 419 kts | 165° |
| 2026-05-07 19:05 | 53.15238 | 10.44544 | 24615 ft | 422 kts | 165° |
| 2026-05-07 19:06 | 53.12383 | 10.45733 | 25087 ft | 424 kts | 169° |
| 2026-05-07 19:06 | 53.06570 | 10.47701 | 25986 ft | 429 kts | 170° |
| 2026-05-07 19:06 | 53.03626 | 10.48624 | 26427 ft | 432 kts | 170° |
| 2026-05-07 19:07 | 53.00666 | 10.49535 | 26854 ft | 434 kts | 171° |
| 2026-05-07 19:07 | 52.97680 | 10.50448 | 27273 ft | 437 kts | 170° |
| 2026-05-07 19:07 | 52.94681 | 10.51366 | 27687 ft | 439 kts | 170° |
| 2026-05-07 19:07 | 52.91705 | 10.52280 | 28086 ft | 442 kts | 170° |
| 2026-05-07 19:08 | 52.88670 | 10.53214 | 28483 ft | 444 kts | 170° |
| 2026-05-07 19:08 | 52.85622 | 10.54153 | 28868 ft | 447 kts | 170° |
| 2026-05-07 19:08 | 52.82555 | 10.55098 | 29245 ft | 450 kts | 170° |
| 2026-05-07 19:08 | 52.79468 | 10.56049 | 29611 ft | 452 kts | 170° |
| 2026-05-07 19:09 | 52.76357 | 10.57006 | 30061 ft | 452 kts | 170° |
| 2026-05-07 19:09 | 52.73273 | 10.57953 | 30503 ft | 451 kts | 170° |
| 2026-05-07 19:09 | 52.71228 | 10.58581 | 30786 ft | 451 kts | 170° |
| 2026-05-07 19:09 | 52.67089 | 10.59847 | 31098 ft | 453 kts | 169° |
| 2026-05-07 19:10 | 52.60877 | 10.61745 | 31110 ft | 453 kts | 169° |
| 2026-05-07 19:10 | 52.57779 | 10.62689 | 31230 ft | 453 kts | 169° |
| 2026-05-07 19:10 | 52.54716 | 10.63622 | 31626 ft | 452 kts | 169° |
| 2026-05-07 19:11 | 52.51617 | 10.64564 | 32068 ft | 450 kts | 169° |
| 2026-05-07 19:11 | 52.48535 | 10.65500 | 32475 ft | 449 kts | 169° |
| 2026-05-07 19:11 | 52.45457 | 10.66433 | 32857 ft | 449 kts | 169° |
| 2026-05-07 19:11 | 52.42389 | 10.67361 | 33238 ft | 448 kts | 169° |
| 2026-05-07 19:12 | 52.39322 | 10.68288 | 33602 ft | 447 kts | 169° |
| 2026-05-07 19:12 | 52.36299 | 10.69200 | 33959 ft | 447 kts | 169° |
| 2026-05-07 19:12 | 52.33237 | 10.70122 | 34274 ft | 446 kts | 170° |
| 2026-05-07 19:12 | 52.30189 | 10.71040 | 34551 ft | 446 kts | 170° |
| 2026-05-07 19:13 | 52.21801 | 10.73557 | 35097 ft | 449 kts | 170° |
| 2026-05-07 19:13 | 52.18799 | 10.74455 | 35106 ft | 449 kts | 170° |
| 2026-05-07 19:14 | 52.12629 | 10.76298 | 35107 ft | 447 kts | 170° |
| 2026-05-07 19:14 | 52.06497 | 10.78125 | 35105 ft | 447 kts | 170° |
| 2026-05-07 19:15 | 52.00375 | 10.79944 | 35107 ft | 447 kts | 171° |
| 2026-05-07 19:15 | 51.94152 | 10.81787 | 35112 ft | 447 kts | 171° |
| 2026-05-07 19:16 | 51.88029 | 10.83596 | 35109 ft | 447 kts | 170° |
| 2026-05-07 19:16 | 51.81910 | 10.85400 | 35109 ft | 447 kts | 170° |
| 2026-05-07 19:17 | 51.75788 | 10.87198 | 35104 ft | 447 kts | 171° |
| 2026-05-07 19:17 | 51.69672 | 10.89030 | 35103 ft | 447 kts | 168° |
| 2026-05-07 19:18 | 51.63819 | 10.92475 | 35104 ft | 449 kts | 157° |
| 2026-05-07 19:18 | 51.58170 | 10.96801 | 35103 ft | 450 kts | 155° |
| 2026-05-07 19:19 | 51.52564 | 11.01282 | 35095 ft | 450 kts | 154° |
| 2026-05-07 19:19 | 51.46986 | 11.05718 | 35098 ft | 450 kts | 155° |
| 2026-05-07 19:20 | 51.41364 | 11.10140 | 35097 ft | 450 kts | 155° |
| 2026-05-07 19:20 | 51.35721 | 11.14549 | 35095 ft | 450 kts | 155° |
| 2026-05-07 19:21 | 51.30114 | 11.18917 | 35093 ft | 450 kts | 155° |
| 2026-05-07 19:21 | 51.24476 | 11.23298 | 35086 ft | 450 kts | 155° |
| 2026-05-07 19:22 | 51.18831 | 11.27673 | 35094 ft | 451 kts | 155° |
| 2026-05-07 19:22 | 51.13180 | 11.32040 | 35091 ft | 451 kts | 155° |
| 2026-05-07 19:23 | 51.07531 | 11.36395 | 35089 ft | 451 kts | 155° |
| 2026-05-07 19:23 | 51.01903 | 11.40722 | 35091 ft | 451 kts | 155° |
| 2026-05-07 19:24 | 50.96250 | 11.45056 | 35089 ft | 452 kts | 155° |
| 2026-05-07 19:24 | 50.90577 | 11.49393 | 35081 ft | 452 kts | 156° |
| 2026-05-07 19:25 | 50.84903 | 11.53719 | 35086 ft | 452 kts | 156° |
| 2026-05-07 19:25 | 50.79270 | 11.58003 | 35086 ft | 452 kts | 156° |
| 2026-05-07 19:26 | 50.73578 | 11.62320 | 35077 ft | 452 kts | 156° |
| 2026-05-07 19:26 | 50.67895 | 11.66618 | 35081 ft | 453 kts | 156° |
| 2026-05-07 19:27 | 50.62246 | 11.70879 | 35080 ft | 453 kts | 156° |
| 2026-05-07 19:27 | 50.56559 | 11.75157 | 35079 ft | 453 kts | 156° |
| 2026-05-07 19:28 | 50.50870 | 11.79426 | 35076 ft | 453 kts | 156° |
| 2026-05-07 19:28 | 50.45166 | 11.83646 | 35075 ft | 453 kts | 157° |
| 2026-05-07 19:29 | 50.39422 | 11.87586 | 35075 ft | 452 kts | 159° |
| 2026-05-07 19:29 | 50.33626 | 11.91457 | 35075 ft | 452 kts | 159° |
| 2026-05-07 19:30 | 50.27839 | 11.95328 | 34935 ft | 453 kts | 158° |
| 2026-05-07 19:30 | 50.24943 | 11.97272 | 34467 ft | 453 kts | 158° |
| 2026-05-07 19:30 | 50.22042 | 11.99221 | 34034 ft | 453 kts | 158° |
| 2026-05-07 19:31 | 50.19136 | 12.01175 | 33540 ft | 454 kts | 158° |
| 2026-05-07 19:31 | 50.16233 | 12.03126 | 33059 ft | 455 kts | 158° |
| 2026-05-07 19:31 | 50.13354 | 12.05058 | 32558 ft | 456 kts | 158° |
| 2026-05-07 19:31 | 50.10435 | 12.07014 | 32099 ft | 457 kts | 158° |
| 2026-05-07 19:32 | 50.07506 | 12.08973 | 31615 ft | 459 kts | 158° |
| 2026-05-07 19:32 | 50.04556 | 12.10943 | 31123 ft | 460 kts | 158° |
| 2026-05-07 19:32 | 50.01613 | 12.12904 | 30644 ft | 461 kts | 158° |
| 2026-05-07 19:32 | 49.98656 | 12.14871 | 30174 ft | 461 kts | 158° |
| 2026-05-07 19:33 | 49.95703 | 12.16833 | 29621 ft | 462 kts | 158° |
| 2026-05-07 19:33 | 49.92744 | 12.18798 | 29077 ft | 462 kts | 158° |
| 2026-05-07 19:33 | 49.89819 | 12.20737 | 28559 ft | 462 kts | 158° |
| 2026-05-07 19:33 | 49.86874 | 12.22687 | 28233 ft | 459 kts | 158° |
| 2026-05-07 19:34 | 49.83937 | 12.24628 | 27881 ft | 457 kts | 158° |
| 2026-05-07 19:34 | 49.80950 | 12.26257 | 27400 ft | 453 kts | 166° |
| 2026-05-07 19:34 | 49.77864 | 12.27161 | 26923 ft | 449 kts | 174° |
| 2026-05-07 19:34 | 49.74766 | 12.27655 | 26452 ft | 445 kts | 178° |
| 2026-05-07 19:35 | 49.71688 | 12.27985 | 25990 ft | 442 kts | 179° |
| 2026-05-07 19:35 | 49.68619 | 12.28225 | 25536 ft | 440 kts | 180° |
| 2026-05-07 19:35 | 49.65572 | 12.28427 | 25090 ft | 438 kts | 180° |
| 2026-05-07 19:35 | 49.62541 | 12.28622 | 24653 ft | 435 kts | 180° |
| 2026-05-07 19:36 | 49.59510 | 12.28824 | 24227 ft | 433 kts | 180° |
| 2026-05-07 19:36 | 49.56502 | 12.29035 | 23788 ft | 431 kts | 180° |
| 2026-05-07 19:36 | 49.53513 | 12.29254 | 23308 ft | 429 kts | 180° |
| 2026-05-07 19:36 | 49.50583 | 12.29474 | 22816 ft | 425 kts | 180° |
| 2026-05-07 19:37 | 49.47640 | 12.29699 | 22329 ft | 421 kts | 179° |
| 2026-05-07 19:37 | 49.44725 | 12.29923 | 21849 ft | 417 kts | 179° |
| 2026-05-07 19:37 | 49.41839 | 12.30145 | 21374 ft | 414 kts | 179° |
| 2026-05-07 19:37 | 49.38971 | 12.30364 | 20912 ft | 411 kts | 179° |
| 2026-05-07 19:38 | 49.36117 | 12.30581 | 20439 ft | 409 kts | 179° |
| 2026-05-07 19:38 | 49.33281 | 12.30796 | 20000 ft | 406 kts | 179° |
| 2026-05-07 19:38 | 49.30471 | 12.31009 | 19551 ft | 403 kts | 180° |
| 2026-05-07 19:38 | 49.27677 | 12.31221 | 19113 ft | 400 kts | 180° |
| 2026-05-07 19:39 | 49.24899 | 12.31431 | 18678 ft | 397 kts | 180° |
| 2026-05-07 19:39 | 49.22148 | 12.31639 | 18243 ft | 395 kts | 180° |
| 2026-05-07 19:39 | 49.19410 | 12.31845 | 17749 ft | 392 kts | 180° |
| 2026-05-07 19:39 | 49.16728 | 12.32047 | 17258 ft | 389 kts | 180° |
| 2026-05-07 19:40 | 49.14027 | 12.32252 | 16801 ft | 386 kts | 180° |
| 2026-05-07 19:40 | 49.11352 | 12.32454 | 16336 ft | 383 kts | 180° |
| 2026-05-07 19:40 | 49.08700 | 12.32654 | 15877 ft | 380 kts | 180° |
| 2026-05-07 19:40 | 49.06066 | 12.32852 | 15415 ft | 376 kts | 180° |
| 2026-05-07 19:41 | 49.03461 | 12.33046 | 14972 ft | 373 kts | 180° |
| 2026-05-07 19:41 | 49.00871 | 12.33239 | 14530 ft | 370 kts | 180° |
| 2026-05-07 19:41 | 48.98312 | 12.33429 | 14094 ft | 367 kts | 180° |
| 2026-05-07 19:41 | 48.95783 | 12.33618 | 13636 ft | 362 kts | 180° |
| 2026-05-07 19:42 | 48.93276 | 12.33806 | 13157 ft | 360 kts | 180° |
| 2026-05-07 19:42 | 48.90810 | 12.33989 | 12688 ft | 358 kts | 180° |
| 2026-05-07 19:42 | 48.88325 | 12.34174 | 12221 ft | 356 kts | 180° |
| 2026-05-07 19:42 | 48.85856 | 12.34358 | 11749 ft | 354 kts | 181° |
| 2026-05-07 19:43 | 48.83410 | 12.34541 | 11311 ft | 350 kts | 181° |
| 2026-05-07 19:43 | 48.80987 | 12.34714 | 11094 ft | 347 kts | 182° |
| 2026-05-07 19:43 | 48.78602 | 12.34426 | 11068 ft | 343 kts | 192° |
| 2026-05-07 19:43 | 48.76260 | 12.33785 | 11067 ft | 341 kts | 195° |
| 2026-05-07 19:44 | 48.73974 | 12.33010 | 11061 ft | 327 kts | 197° |
| 2026-05-07 19:44 | 48.71821 | 12.32225 | 11058 ft | 309 kts | 196° |
| 2026-05-07 19:44 | 48.69768 | 12.31613 | 11056 ft | 293 kts | 194° |
| 2026-05-07 19:44 | 48.67775 | 12.31176 | 11039 ft | 288 kts | 188° |
| 2026-05-07 19:45 | 48.65764 | 12.31074 | 10748 ft | 290 kts | 185° |
| 2026-05-07 19:45 | 48.63745 | 12.31056 | 10354 ft | 289 kts | 184° |
| 2026-05-07 19:45 | 48.61734 | 12.31048 | 9958 ft | 288 kts | 184° |
| 2026-05-07 19:45 | 48.59761 | 12.31042 | 9532 ft | 286 kts | 184° |
| 2026-05-07 19:46 | 48.57775 | 12.31025 | 9048 ft | 285 kts | 184° |
| 2026-05-07 19:46 | 48.55786 | 12.30999 | 8555 ft | 286 kts | 184° |
| 2026-05-07 19:46 | 48.53791 | 12.30960 | 8076 ft | 286 kts | 184° |
| 2026-05-07 19:46 | 48.51793 | 12.30909 | 7586 ft | 287 kts | 184° |
| 2026-05-07 19:47 | 48.49800 | 12.30845 | 7115 ft | 286 kts | 184° |
| 2026-05-07 19:47 | 48.47809 | 12.30768 | 6648 ft | 286 kts | 184° |
| 2026-05-07 19:47 | 48.45819 | 12.30678 | 6192 ft | 285 kts | 184° |
| 2026-05-07 19:47 | 48.44517 | 12.30566 | 6024 ft | 278 kts | 191° |
| 2026-05-07 19:48 | 48.42326 | 12.28952 | 5986 ft | 260 kts | 226° |
| 2026-05-07 19:48 | 48.41152 | 12.26924 | 5979 ft | 262 kts | 233° |
| 2026-05-07 19:48 | 48.40042 | 12.24731 | 5978 ft | 264 kts | 234° |
| 2026-05-07 19:48 | 48.39045 | 12.22437 | 5973 ft | 261 kts | 248° |
| 2026-05-07 19:49 | 48.38641 | 12.19792 | 5982 ft | 261 kts | 266° |
| 2026-05-07 19:49 | 48.38768 | 12.17075 | 5984 ft | 262 kts | 283° |
| 2026-05-07 19:49 | 48.39381 | 12.14492 | 5990 ft | 263 kts | 292° |
| 2026-05-07 19:49 | 48.39841 | 12.11851 | 5984 ft | 262 kts | 270° |
| 2026-05-07 19:50 | 48.39455 | 12.09208 | 5873 ft | 261 kts | 244° |
| 2026-05-07 19:50 | 48.38521 | 12.06858 | 5423 ft | 262 kts | 240° |
| 2026-05-07 19:50 | 48.37841 | 12.04333 | 5065 ft | 261 kts | 259° |
| 2026-05-07 19:50 | 48.37890 | 12.01622 | 4817 ft | 261 kts | 283° |
| 2026-05-07 19:51 | 48.38234 | 11.99889 | 4439 ft | 261 kts | 287° |
| 2026-05-07 19:51 | 48.38328 | 11.96325 | 3519 ft | 259 kts | 257° |
| 2026-05-07 19:51 | 48.37638 | 11.93856 | 3092 ft | 251 kts | 245° |
| 2026-05-07 19:51 | 48.37287 | 11.91447 | 2961 ft | 226 kts | 268° |
| 2026-05-07 19:52 | 48.37218 | 11.89138 | 2629 ft | 215 kts | 269° |
| 2026-05-07 19:52 | 48.37070 | 11.86944 | 2060 ft | 211 kts | 262° |
| 2026-05-07 19:52 | 48.36931 | 11.85477 | 1735 ft | 206 kts | 264° |
| 2026-05-07 19:52 | 48.36789 | 11.83497 | 1660 ft | 179 kts | 264° |
| 2026-05-07 19:53 | 48.36659 | 11.81764 | 1485 ft | 159 kts | 265° |
| 2026-05-07 19:53 | 48.36550 | 11.80285 | 1462 ft | 119 kts | 263° |
| 2026-05-07 19:53 | 48.36476 | 11.79321 | 1472 ft | 67 kts | 266° |
| 2026-05-07 19:53 | 48.36408 | 11.78916 | 1466 ft | 15 kts | 235° |
| 2026-05-07 19:54 | 48.36373 | 11.78847 | 1468 ft | 18 kts | 234° |
| 2026-05-07 19:54 | 48.36293 | 11.78688 | 1466 ft | 19 kts | 233° |
| 2026-05-07 19:54 | 48.36219 | 11.78539 | 1462 ft | 8 kts | 233° |
| 2026-05-07 19:54 | 48.36186 | 11.78471 | 1465 ft | 7 kts | 234° |
| 2026-05-07 19:55 | 48.36161 | 11.78450 | 1467 ft | 6 kts | 166° |
| 2026-05-07 19:55 | 48.36073 | 11.78485 | 1467 ft | 17 kts | 162° |
| 2026-05-07 19:55 | 48.36037 | 11.78606 | 1467 ft | 12 kts | 88° |
| 2026-05-07 19:55 | 48.36047 | 11.78731 | 1464 ft | 12 kts | 83° |
| 2026-05-07 19:56 | 48.36057 | 11.78862 | 1471 ft | 14 kts | 84° |
| 2026-05-07 19:56 | 48.36068 | 11.79032 | 1466 ft | 18 kts | 83° |
| 2026-05-07 19:56 | 48.36085 | 11.79226 | 1467 ft | 19 kts | 83° |
| 2026-05-07 19:56 | 48.36023 | 11.79330 | 1463 ft | 8 kts | 176° |
| 2026-05-07 19:57 | 48.35969 | 11.79339 | 1467 ft | 7 kts | 174° |
| 2026-05-07 19:57 | 48.35967 | 11.79339 | 1467 ft | 0 kts | 174° |
| 2026-05-07 19:57 | 48.35955 | 11.79341 | 1468 ft | 5 kts | 172° |
| 2026-05-07 19:58 | 48.35919 | 11.79354 | 1462 ft | 5 kts | 155° |
| 2026-05-07 19:58 | 48.35875 | 11.79381 | 1462 ft | 7 kts | 166° |
| 2026-05-07 19:58 | 48.35843 | 11.79349 | 1467 ft | 9 kts | 261° |
| 2026-05-07 19:58 | 48.35841 | 11.79253 | 1470 ft | 8 kts | 262° |
| 2026-05-07 19:59 | 48.35839 | 11.79225 | 1466 ft | 0 kts | 264° |